sensor_id;sensor_type;location;lat;lon;timestamp;pressure;altitude;pressure_sealevel;temperature;humidity
62111;BME280;48102;47.526;19.072;2022-08-01T03:41:19;100174.16;;;14.35;100.00
62111;BME280;48102;47.526;19.072;2022-08-01T03:44:27;100176.69;;;14.37;100.00
62111;BME280;48102;47.526;19.072;2022-08-01T03:47:33;100177.78;;;14.47;100.00
62111;BME280;48102;47.526;19.072;2022-08-01T03:50:50;100185.66;;;14.61;100.00
62111;BME280;48102;47.526;19.072;2022-08-01T03:53:54;100180.03;;;14.78;100.00
62111;BME280;48102;47.526;19.072;2022-08-01T03:56:58;100189.53;;;14.94;100.00
62111;BME280;48102;47.526;19.072;2022-08-01T04:00:04;100186.16;;;15.04;100.00
62111;BME280;48102;47.526;19.072;2022-08-01T04:03:16;100189.75;;;15.16;100.00
62111;BME280;48102;47.526;19.072;2022-08-01T04:06:19;100194.78;;;15.32;100.00
62111;BME280;48102;47.526;19.072;2022-08-01T04:09:22;100193.91;;;15.44;100.00
62111;BME280;48102;47.526;19.072;2022-08-01T04:12:25;100194.62;;;15.59;99.69
62111;BME280;48102;47.526;19.072;2022-08-01T04:15:28;100201.47;;;15.74;98.97
62111;BME280;48102;47.526;19.072;2022-08-01T04:18:31;100203.13;;;15.88;97.97
62111;BME280;48102;47.526;19.072;2022-08-01T04:21:35;100197.00;;;15.99;95.75
62111;BME280;48102;47.526;19.072;2022-08-01T04:24:39;100202.97;;;16.14;95.24
62111;BME280;48102;47.526;19.072;2022-08-01T04:27:45;100204.59;;;16.27;94.27
62111;BME280;48102;47.526;19.072;2022-08-01T04:30:54;100206.09;;;16.43;93.68
62111;BME280;48102;47.526;19.072;2022-08-01T04:34:05;100198.75;;;16.58;92.03
62111;BME280;48102;47.526;19.072;2022-08-01T04:37:09;100202.78;;;16.74;89.69
62111;BME280;48102;47.526;19.072;2022-08-01T04:40:16;100197.00;;;16.92;89.38
62111;BME280;48102;47.526;19.072;2022-08-01T04:43:19;100207.16;;;17.09;88.12
62111;BME280;48102;47.526;19.072;2022-08-01T04:46:23;100203.44;;;17.23;86.47
62111;BME280;48102;47.526;19.072;2022-08-01T04:49:26;100212.72;;;17.40;86.03
62111;BME280;48102;47.526;19.072;2022-08-01T04:52:35;100215.75;;;17.58;84.67
62111;BME280;48102;47.526;19.072;2022-08-01T04:55:38;100203.72;;;17.74;83.68
62111;BME280;48102;47.526;19.072;2022-08-01T04:58:42;100209.47;;;17.91;80.26
62111;BME280;48102;47.526;19.072;2022-08-01T05:01:48;100209.06;;;18.07;81.31
62111;BME280;48102;47.526;19.072;2022-08-01T05:04:51;100220.16;;;18.23;80.77
62111;BME280;48102;47.526;19.072;2022-08-01T05:07:54;100211.56;;;18.40;80.34
62111;BME280;48102;47.526;19.072;2022-08-01T05:10:56;100217.03;;;18.60;80.27
62111;BME280;48102;47.526;19.072;2022-08-01T05:14:01;100212.69;;;18.79;78.46
62111;BME280;48102;47.526;19.072;2022-08-01T05:17:06;100211.94;;;18.98;76.78
62111;BME280;48102;47.526;19.072;2022-08-01T05:20:11;100213.56;;;19.20;75.13
62111;BME280;48102;47.526;19.072;2022-08-01T05:23:13;100210.84;;;19.41;73.62
62111;BME280;48102;47.526;19.072;2022-08-01T05:26:36;100211.84;;;19.60;72.21
62111;BME280;48102;47.526;19.072;2022-08-01T05:29:39;100215.44;;;19.79;71.09
62111;BME280;48102;47.526;19.072;2022-08-01T05:32:46;100219.28;;;19.96;69.78
62111;BME280;48102;47.526;19.072;2022-08-01T05:35:49;100222.66;;;20.08;68.96
62111;BME280;48102;47.526;19.072;2022-08-01T05:38:52;100214.78;;;20.26;67.09
62111;BME280;48102;47.526;19.072;2022-08-01T05:41:54;100219.25;;;20.45;65.68
62111;BME280;48102;47.526;19.072;2022-08-01T05:44:57;100217.72;;;20.62;64.14
62111;BME280;48102;47.526;19.072;2022-08-01T05:48:00;100219.66;;;20.79;65.35
62111;BME280;48102;47.526;19.072;2022-08-01T05:51:02;100217.22;;;20.95;65.62
62111;BME280;48102;47.526;19.072;2022-08-01T05:54:05;100219.03;;;20.95;63.74
62111;BME280;48102;47.526;19.072;2022-08-01T05:57:08;100220.50;;;21.17;62.79
62111;BME280;48102;47.526;19.072;2022-08-01T06:00:12;100228.62;;;21.35;63.55
62111;BME280;48102;47.526;19.072;2022-08-01T06:03:18;100220.37;;;21.46;62.27
62111;BME280;48102;47.526;19.072;2022-08-01T06:06:21;100220.34;;;21.56;62.42
62111;BME280;48102;47.526;19.072;2022-08-01T06:09:27;100221.50;;;21.71;61.96
62111;BME280;48102;47.526;19.072;2022-08-01T06:12:32;100225.84;;;21.82;61.65
62111;BME280;48102;47.526;19.072;2022-08-01T06:15:37;100223.75;;;21.93;60.50
62111;BME280;48102;47.526;19.072;2022-08-01T06:18:40;100219.56;;;22.09;59.01
62111;BME280;48102;47.526;19.072;2022-08-01T06:21:42;100224.31;;;22.15;61.33
62111;BME280;48102;47.526;19.072;2022-08-01T06:24:45;100226.00;;;22.34;59.98
62111;BME280;48102;47.526;19.072;2022-08-01T06:27:48;100231.13;;;22.45;59.18
62111;BME280;48102;47.526;19.072;2022-08-01T06:30:51;100230.53;;;22.51;57.42
62111;BME280;48102;47.526;19.072;2022-08-01T06:33:54;100223.47;;;22.76;57.48
62111;BME280;48102;47.526;19.072;2022-08-01T06:36:59;100226.97;;;22.94;57.81
62111;BME280;48102;47.526;19.072;2022-08-01T06:40:10;100223.50;;;23.02;56.74
62111;BME280;48102;47.526;19.072;2022-08-01T06:43:18;100225.91;;;23.13;56.75
62111;BME280;48102;47.526;19.072;2022-08-01T06:46:21;100231.53;;;23.28;56.43
62111;BME280;48102;47.526;19.072;2022-08-01T06:49:24;100235.28;;;23.43;55.96
62111;BME280;48102;47.526;19.072;2022-08-01T06:52:27;100240.53;;;23.53;54.67
62111;BME280;48102;47.526;19.072;2022-08-01T06:55:30;100243.16;;;23.71;55.07
62111;BME280;48102;47.526;19.072;2022-08-01T06:58:33;100247.37;;;23.82;52.01
62111;BME280;48102;47.526;19.072;2022-08-01T07:01:37;100238.81;;;23.94;52.02
62111;BME280;48102;47.526;19.072;2022-08-01T07:04:41;100237.81;;;24.03;51.32
62111;BME280;48102;47.526;19.072;2022-08-01T07:07:43;100236.19;;;24.19;50.93
62111;BME280;48102;47.526;19.072;2022-08-01T07:10:47;100239.25;;;24.40;50.86
62111;BME280;48102;47.526;19.072;2022-08-01T07:13:49;100231.50;;;24.45;49.59
62111;BME280;48102;47.526;19.072;2022-08-01T07:16:52;100223.56;;;24.60;49.55
62111;BME280;48102;47.526;19.072;2022-08-01T07:19:55;100228.44;;;24.65;48.73
62111;BME280;48102;47.526;19.072;2022-08-01T07:22:59;100218.16;;;24.76;49.43
62111;BME280;48102;47.526;19.072;2022-08-01T07:26:03;100215.78;;;24.90;49.23
62111;BME280;48102;47.526;19.072;2022-08-01T07:29:06;100218.25;;;24.99;48.08
62111;BME280;48102;47.526;19.072;2022-08-01T07:32:09;100220.59;;;25.19;47.79
62111;BME280;48102;47.526;19.072;2022-08-01T07:35:12;100220.44;;;25.20;45.75
62111;BME280;48102;47.526;19.072;2022-08-01T07:38:14;100225.25;;;25.41;46.67
62111;BME280;48102;47.526;19.072;2022-08-01T07:41:20;100223.75;;;25.70;45.28
62111;BME280;48102;47.526;19.072;2022-08-01T07:44:43;100223.81;;;25.93;45.30
62111;BME280;48102;47.526;19.072;2022-08-01T07:47:46;100218.78;;;26.13;42.38
62111;BME280;48102;47.526;19.072;2022-08-01T07:50:49;100221.09;;;26.62;42.45
62111;BME280;48102;47.526;19.072;2022-08-01T07:53:52;100223.37;;;27.32;40.68
62111;BME280;48102;47.526;19.072;2022-08-01T07:56:55;100226.53;;;28.01;39.07
62111;BME280;48102;47.526;19.072;2022-08-01T08:00:00;100225.75;;;28.79;37.97
62111;BME280;48102;47.526;19.072;2022-08-01T08:03:05;100221.09;;;29.29;36.57
62111;BME280;48102;47.526;19.072;2022-08-01T08:06:08;100208.38;;;29.77;37.04
62111;BME280;48102;47.526;19.072;2022-08-01T08:09:11;100216.84;;;30.35;35.47
62111;BME280;48102;47.526;19.072;2022-08-01T08:12:14;100215.41;;;30.79;34.35
62111;BME280;48102;47.526;19.072;2022-08-01T08:15:17;100220.41;;;30.89;35.06
62111;BME280;48102;47.526;19.072;2022-08-01T08:18:20;100227.91;;;31.13;34.36
62111;BME280;48102;47.526;19.072;2022-08-01T08:21:22;100229.59;;;30.68;32.53
62111;BME280;48102;47.526;19.072;2022-08-01T08:24:26;100226.69;;;30.23;33.43
62111;BME280;48102;47.526;19.072;2022-08-01T08:27:30;100220.75;;;30.06;34.83
62111;BME280;48102;47.526;19.072;2022-08-01T08:30:33;100219.66;;;29.81;34.55
62111;BME280;48102;47.526;19.072;2022-08-01T08:33:36;100223.22;;;29.40;35.32
62111;BME280;48102;47.526;19.072;2022-08-01T08:36:39;100246.06;;;29.11;36.29
62111;BME280;48102;47.526;19.072;2022-08-01T08:39:49;100246.03;;;28.83;34.41
62111;BME280;48102;47.526;19.072;2022-08-01T08:42:52;100250.53;;;28.69;37.63
62111;BME280;48102;47.526;19.072;2022-08-01T08:45:56;100253.87;;;28.71;36.56
62111;BME280;48102;47.526;19.072;2022-08-01T08:49:03;100255.84;;;28.56;36.50
62111;BME280;48102;47.526;19.072;2022-08-01T08:52:08;100258.47;;;28.70;37.44
62111;BME280;48102;47.526;19.072;2022-08-01T08:55:12;100265.03;;;28.83;37.57
62111;BME280;48102;47.526;19.072;2022-08-01T08:58:17;100260.84;;;28.80;36.22
62111;BME280;48102;47.526;19.072;2022-08-01T09:01:21;100264.09;;;28.69;38.90
62111;BME280;48102;47.526;19.072;2022-08-01T09:04:25;100262.09;;;28.84;38.67
62111;BME280;48102;47.526;19.072;2022-08-01T09:07:29;100265.13;;;28.68;36.44
62111;BME280;48102;47.526;19.072;2022-08-01T09:10:31;100266.38;;;28.93;38.10
62111;BME280;48102;47.526;19.072;2022-08-01T09:13:36;100265.69;;;29.13;38.91
62111;BME280;48102;47.526;19.072;2022-08-01T09:16:46;100263.72;;;29.35;37.42
62111;BME280;48102;47.526;19.072;2022-08-01T09:19:53;100263.09;;;29.33;36.91
62111;BME280;48102;47.526;19.072;2022-08-01T09:22:58;100267.00;;;29.23;36.59
62111;BME280;48102;47.526;19.072;2022-08-01T09:26:01;100256.63;;;29.40;37.38
62111;BME280;48102;47.526;19.072;2022-08-01T09:29:06;100262.44;;;29.31;34.87
62111;BME280;48102;47.526;19.072;2022-08-01T09:32:12;100257.84;;;29.31;36.94
62111;BME280;48102;47.526;19.072;2022-08-01T09:35:25;100258.47;;;29.68;37.48
62111;BME280;48102;47.526;19.072;2022-08-01T09:38:32;100257.25;;;29.77;33.76
62111;BME280;48102;47.526;19.072;2022-08-01T09:41:36;100257.13;;;29.50;35.64
62111;BME280;48102;47.526;19.072;2022-08-01T09:44:43;100257.13;;;29.98;35.62
62111;BME280;48102;47.526;19.072;2022-08-01T09:47:56;100257.84;;;30.40;34.95
62111;BME280;48102;47.526;19.072;2022-08-01T09:51:00;100252.44;;;30.73;33.99
62111;BME280;48102;47.526;19.072;2022-08-01T09:54:11;100250.72;;;30.99;33.22
62111;BME280;48102;47.526;19.072;2022-08-01T09:57:18;100245.19;;;31.39;33.32
62111;BME280;48102;47.526;19.072;2022-08-01T10:00:23;100255.06;;;31.40;33.85
62111;BME280;48102;47.526;19.072;2022-08-01T10:03:46;100259.03;;;31.95;33.91
62111;BME280;48102;47.526;19.072;2022-08-01T10:06:50;100251.56;;;32.16;32.13
62111;BME280;48102;47.526;19.072;2022-08-01T10:10:17;100251.94;;;31.88;30.67
62111;BME280;48102;47.526;19.072;2022-08-01T10:13:20;100254.78;;;32.06;32.07
62111;BME280;48102;47.526;19.072;2022-08-01T10:16:25;100257.53;;;32.31;31.71
62111;BME280;48102;47.526;19.072;2022-08-01T10:19:32;100249.88;;;32.15;31.20
62111;BME280;48102;47.526;19.072;2022-08-01T10:22:35;100250.63;;;32.29;31.93
62111;BME280;48102;47.526;19.072;2022-08-01T10:25:41;100256.25;;;32.09;30.16
62111;BME280;48102;47.526;19.072;2022-08-01T10:28:50;100257.66;;;32.11;29.77
62111;BME280;48102;47.526;19.072;2022-08-01T10:31:53;100250.87;;;31.95;31.53
62111;BME280;48102;47.526;19.072;2022-08-01T10:35:03;100248.00;;;32.15;30.38
62111;BME280;48102;47.526;19.072;2022-08-01T10:38:08;100252.84;;;32.70;31.23
62111;BME280;48102;47.526;19.072;2022-08-01T10:41:18;100251.41;;;32.92;30.45
62111;BME280;48102;47.526;19.072;2022-08-01T10:44:23;100239.53;;;33.24;31.25
62111;BME280;48102;47.526;19.072;2022-08-01T10:47:35;100243.09;;;33.42;31.43
62111;BME280;48102;47.526;19.072;2022-08-01T10:50:54;100237.63;;;33.06;29.18
62111;BME280;48102;47.526;19.072;2022-08-01T10:54:05;100238.25;;;33.08;31.18
62111;BME280;48102;47.526;19.072;2022-08-01T10:57:11;100229.53;;;32.74;28.88
62111;BME280;48102;47.526;19.072;2022-08-01T11:00:20;100230.91;;;32.58;31.00
62111;BME280;48102;47.526;19.072;2022-08-01T11:03:34;100221.62;;;32.41;29.67
62111;BME280;48102;47.526;19.072;2022-08-01T11:07:07;100230.47;;;32.86;30.37
62111;BME280;48102;47.526;19.072;2022-08-01T11:20:56;100221.66;;;32.84;29.65
62111;BME280;48102;47.526;19.072;2022-08-01T11:31:31;100206.75;;;34.20;29.12
62111;BME280;48102;47.526;19.072;2022-08-01T11:34:55;100207.03;;;35.01;26.67
62111;BME280;48102;47.526;19.072;2022-08-01T11:38:24;100213.16;;;36.29;25.95
62111;BME280;48102;47.526;19.072;2022-08-01T11:41:32;100204.34;;;36.27;25.40
62111;BME280;48102;47.526;19.072;2022-08-01T11:44:49;100205.94;;;35.66;27.02
62111;BME280;48102;47.526;19.072;2022-08-01T11:47:54;100201.19;;;35.90;28.69
62111;BME280;48102;47.526;19.072;2022-08-01T11:50:59;100198.19;;;36.37;26.62
62111;BME280;48102;47.526;19.072;2022-08-01T11:54:04;100194.78;;;36.30;27.06
62111;BME280;48102;47.526;19.072;2022-08-01T11:57:08;100187.22;;;36.20;27.46
62111;BME280;48102;47.526;19.072;2022-08-01T12:00:16;100191.50;;;35.99;29.56
62111;BME280;48102;47.526;19.072;2022-08-01T12:03:31;100185.97;;;36.11;25.17
62111;BME280;48102;47.526;19.072;2022-08-01T12:06:36;100188.28;;;36.53;26.16
62111;BME280;48102;47.526;19.072;2022-08-01T12:09:43;100184.72;;;37.52;25.03
62111;BME280;48102;47.526;19.072;2022-08-01T12:12:47;100185.38;;;38.13;23.92
62111;BME280;48102;47.526;19.072;2022-08-01T12:15:51;100196.81;;;40.00;22.77
62111;BME280;48102;47.526;19.072;2022-08-01T12:18:58;100192.09;;;40.82;21.73
62111;BME280;48102;47.526;19.072;2022-08-01T12:22:10;100185.16;;;42.04;20.94
62111;BME280;48102;47.526;19.072;2022-08-01T12:25:19;100189.00;;;43.81;19.90
62111;BME280;48102;47.526;19.072;2022-08-01T12:28:25;100188.81;;;45.44;16.66
62111;BME280;48102;47.526;19.072;2022-08-01T12:31:33;100186.44;;;44.83;17.53
62111;BME280;48102;47.526;19.072;2022-08-01T12:34:36;100183.22;;;47.36;14.57
62111;BME280;48102;47.526;19.072;2022-08-01T12:38:01;100184.72;;;50.19;12.95
62111;BME280;48102;47.526;19.072;2022-08-01T12:41:10;100178.31;;;49.97;13.29
62111;BME280;48102;47.526;19.072;2022-08-01T12:44:13;100173.75;;;48.07;14.52
62111;BME280;48102;47.526;19.072;2022-08-01T12:47:20;100174.00;;;45.94;16.73
62111;BME280;48102;47.526;19.072;2022-08-01T12:50:27;100162.09;;;45.29;16.72
62111;BME280;48102;47.526;19.072;2022-08-01T12:53:34;100161.41;;;47.64;14.46
62111;BME280;48102;47.526;19.072;2022-08-01T12:56:42;100168.00;;;49.68;14.18
62111;BME280;48102;47.526;19.072;2022-08-01T12:59:52;100161.88;;;50.78;12.50
62111;BME280;48102;47.526;19.072;2022-08-01T13:03:06;100169.59;;;52.27;10.80
62111;BME280;48102;47.526;19.072;2022-08-01T13:06:11;100175.63;;;54.21;10.23
62111;BME280;48102;47.526;19.072;2022-08-01T13:09:15;100160.41;;;55.28;9.93
62111;BME280;48102;47.526;19.072;2022-08-01T13:12:18;100141.25;;;54.61;10.13
62111;BME280;48102;47.526;19.072;2022-08-01T13:15:24;100141.78;;;54.21;8.46
62111;BME280;48102;47.526;19.072;2022-08-01T13:18:30;100142.75;;;54.32;8.92
62111;BME280;48102;47.526;19.072;2022-08-01T13:21:34;100140.19;;;52.40;10.87
62111;BME280;48102;47.526;19.072;2022-08-01T13:25:09;100125.31;;;50.87;11.36
62111;BME280;48102;47.526;19.072;2022-08-01T13:28:23;100112.75;;;47.91;14.19
62111;BME280;48102;47.526;19.072;2022-08-01T13:31:32;100120.12;;;49.82;11.59
62111;BME280;48102;47.526;19.072;2022-08-01T13:34:35;100116.81;;;53.42;8.86
62111;BME280;48102;47.526;19.072;2022-08-01T13:37:40;100126.44;;;53.99;9.58
62111;BME280;48102;47.526;19.072;2022-08-01T13:40:44;100102.63;;;50.80;10.86
62111;BME280;48102;47.526;19.072;2022-08-01T13:43:47;100087.47;;;46.52;13.80
62111;BME280;48102;47.526;19.072;2022-08-01T13:47:02;100095.84;;;47.10;13.09
62111;BME280;48102;47.526;19.072;2022-08-01T13:50:18;100089.66;;;47.39;13.45
62111;BME280;48102;47.526;19.072;2022-08-01T13:53:21;100091.25;;;47.66;12.56
62111;BME280;48102;47.526;19.072;2022-08-01T13:56:25;100096.19;;;50.91;10.46
62111;BME280;48102;47.526;19.072;2022-08-01T13:59:29;100102.25;;;53.55;8.85
62111;BME280;48102;47.526;19.072;2022-08-01T14:02:32;100107.47;;;54.19;9.72
62111;BME280;48102;47.526;19.072;2022-08-01T14:05:37;100103.03;;;53.75;9.67
62111;BME280;48102;47.526;19.072;2022-08-01T14:08:40;100097.75;;;54.39;9.46
62111;BME280;48102;47.526;19.072;2022-08-01T14:11:49;100099.81;;;53.19;10.25
62111;BME280;48102;47.526;19.072;2022-08-01T14:14:52;100107.88;;;55.91;9.26
62111;BME280;48102;47.526;19.072;2022-08-01T14:17:55;100110.94;;;57.33;7.14
62111;BME280;48102;47.526;19.072;2022-08-01T14:20:58;100106.75;;;57.02;7.05
62111;BME280;48102;47.526;19.072;2022-08-01T14:24:07;100108.13;;;56.16;8.07
62111;BME280;48102;47.526;19.072;2022-08-01T14:27:10;100111.87;;;56.86;7.80
62111;BME280;48102;47.526;19.072;2022-08-01T14:30:18;100116.97;;;57.31;7.78
62111;BME280;48102;47.526;19.072;2022-08-01T14:33:21;100104.78;;;56.06;8.00
62111;BME280;48102;47.526;19.072;2022-08-01T14:36:24;100115.09;;;57.64;7.60
62111;BME280;48102;47.526;19.072;2022-08-01T14:39:32;100096.97;;;56.92;6.91
62111;BME280;48102;47.526;19.072;2022-08-01T14:42:37;100103.56;;;56.52;7.06
62111;BME280;48102;47.526;19.072;2022-08-01T14:45:41;100100.66;;;56.41;8.20
62111;BME280;48102;47.526;19.072;2022-08-01T14:48:44;100095.44;;;57.13;7.52
62111;BME280;48102;47.526;19.072;2022-08-01T14:51:46;100098.75;;;57.29;7.06
62111;BME280;48102;47.526;19.072;2022-08-01T14:54:49;100107.06;;;56.90;7.49
62111;BME280;48102;47.526;19.072;2022-08-01T14:57:53;100094.59;;;54.97;7.88
62111;BME280;48102;47.526;19.072;2022-08-01T15:00:56;100096.75;;;55.75;8.33
62111;BME280;48102;47.526;19.072;2022-08-01T15:04:00;100094.03;;;56.71;7.06
62111;BME280;48102;47.526;19.072;2022-08-01T15:07:06;100088.03;;;56.35;8.32
62111;BME280;48102;47.526;19.072;2022-08-01T15:10:10;100083.19;;;55.88;7.99
62111;BME280;48102;47.526;19.072;2022-08-01T15:13:13;100074.69;;;54.33;9.19
62111;BME280;48102;47.526;19.072;2022-08-01T15:16:15;100079.25;;;56.44;7.98
62111;BME280;48102;47.526;19.072;2022-08-01T15:19:19;100079.72;;;56.53;7.94
62111;BME280;48102;47.526;19.072;2022-08-01T15:22:23;100074.37;;;57.03;8.38
62111;BME280;48102;47.526;19.072;2022-08-01T15:25:26;100070.87;;;56.62;7.66
62111;BME280;48102;47.526;19.072;2022-08-01T15:28:43;100075.66;;;56.50;7.99
62111;BME280;48102;47.526;19.072;2022-08-01T15:31:47;100089.28;;;56.93;8.16
